sensor_id;sensor_type;location;lat;lon;timestamp;P1;durP1;ratioP1;P2;durP2;ratioP2
16270;SDS011;8243;49.048;8.396;2022-07-06T00:00:27;2.20;;;2.00;;
16270;SDS011;8243;49.048;8.396;2022-07-06T00:02:52;4.13;;;1.80;;
16270;SDS011;8243;49.048;8.396;2022-07-06T00:05:18;2.13;;;1.87;;
16270;SDS011;8243;49.048;8.396;2022-07-06T00:07:43;5.17;;;2.50;;
16270;SDS011;8243;49.048;8.396;2022-07-06T00:10:09;3.97;;;2.47;;
16270;SDS011;8243;49.048;8.396;2022-07-06T00:12:35;4.50;;;2.40;;
16270;SDS011;8243;49.048;8.396;2022-07-06T00:15:00;4.83;;;2.30;;
16270;SDS011;8243;49.048;8.396;2022-07-06T00:17:26;4.57;;;2.43;;
16270;SDS011;8243;49.048;8.396;2022-07-06T00:19:51;3.63;;;2.63;;
16270;SDS011;8243;49.048;8.396;2022-07-06T00:22:17;2.93;;;2.27;;
16270;SDS011;8243;49.048;8.396;2022-07-06T00:24:43;7.93;;;2.60;;
16270;SDS011;8243;49.048;8.396;2022-07-06T00:27:08;3.50;;;2.27;;
16270;SDS011;8243;49.048;8.396;2022-07-06T00:29:34;2.87;;;2.40;;
16270;SDS011;8243;49.048;8.396;2022-07-06T00:31:59;6.37;;;2.40;;
16270;SDS011;8243;49.048;8.396;2022-07-06T00:34:25;2.40;;;2.20;;
16270;SDS011;8243;49.048;8.396;2022-07-06T00:36:50;4.87;;;2.40;;
16270;SDS011;8243;49.048;8.396;2022-07-06T00:39:16;2.63;;;2.43;;
16270;SDS011;8243;49.048;8.396;2022-07-06T00:41:43;7.47;;;2.57;;
16270;SDS011;8243;49.048;8.396;2022-07-06T00:44:09;3.70;;;2.70;;
16270;SDS011;8243;49.048;8.396;2022-07-06T00:46:35;2.90;;;2.70;;
16270;SDS011;8243;49.048;8.396;2022-07-06T00:49:01;3.97;;;2.57;;
16270;SDS011;8243;49.048;8.396;2022-07-06T00:51:28;3.53;;;2.50;;
16270;SDS011;8243;49.048;8.396;2022-07-06T00:54:00;4.27;;;2.50;;
16270;SDS011;8243;49.048;8.396;2022-07-06T00:56:29;3.53;;;2.20;;
16270;SDS011;8243;49.048;8.396;2022-07-06T00:59:01;2.90;;;2.30;;
16270;SDS011;8243;49.048;8.396;2022-07-06T01:01:27;4.30;;;2.30;;
16270;SDS011;8243;49.048;8.396;2022-07-06T01:03:54;3.47;;;2.73;;
16270;SDS011;8243;49.048;8.396;2022-07-06T01:06:19;5.30;;;2.50;;
16270;SDS011;8243;49.048;8.396;2022-07-06T01:08:45;3.73;;;2.67;;
16270;SDS011;8243;49.048;8.396;2022-07-06T01:11:11;5.97;;;2.40;;
16270;SDS011;8243;49.048;8.396;2022-07-06T01:13:37;3.53;;;2.60;;
16270;SDS011;8243;49.048;8.396;2022-07-06T01:16:03;4.80;;;2.60;;
16270;SDS011;8243;49.048;8.396;2022-07-06T01:18:28;4.63;;;2.57;;
16270;SDS011;8243;49.048;8.396;2022-07-06T01:21:07;3.93;;;2.73;;
16270;SDS011;8243;49.048;8.396;2022-07-06T01:23:38;2.60;;;2.40;;
16270;SDS011;8243;49.048;8.396;2022-07-06T01:26:04;4.27;;;2.63;;
16270;SDS011;8243;49.048;8.396;2022-07-06T01:28:30;4.47;;;2.50;;
16270;SDS011;8243;49.048;8.396;2022-07-06T01:30:56;3.23;;;2.93;;
16270;SDS011;8243;49.048;8.396;2022-07-06T01:33:21;4.07;;;2.87;;
16270;SDS011;8243;49.048;8.396;2022-07-06T01:35:47;6.50;;;3.07;;
16270;SDS011;8243;49.048;8.396;2022-07-06T01:38:14;5.60;;;3.17;;
16270;SDS011;8243;49.048;8.396;2022-07-06T01:40:40;4.37;;;3.10;;
16270;SDS011;8243;49.048;8.396;2022-07-06T01:43:05;4.70;;;3.20;;
16270;SDS011;8243;49.048;8.396;2022-07-06T01:45:31;6.77;;;3.43;;
16270;SDS011;8243;49.048;8.396;2022-07-06T01:47:58;3.97;;;2.97;;
16270;SDS011;8243;49.048;8.396;2022-07-06T01:50:23;6.60;;;3.27;;
16270;SDS011;8243;49.048;8.396;2022-07-06T01:52:49;7.40;;;2.93;;
16270;SDS011;8243;49.048;8.396;2022-07-06T01:55:14;3.50;;;3.20;;
16270;SDS011;8243;49.048;8.396;2022-07-06T01:57:40;6.33;;;3.37;;
16270;SDS011;8243;49.048;8.396;2022-07-06T02:00:06;7.20;;;3.27;;
16270;SDS011;8243;49.048;8.396;2022-07-06T02:02:32;3.80;;;2.70;;
16270;SDS011;8243;49.048;8.396;2022-07-06T02:04:58;4.87;;;3.20;;
16270;SDS011;8243;49.048;8.396;2022-07-06T02:07:24;4.53;;;2.90;;
16270;SDS011;8243;49.048;8.396;2022-07-06T02:09:49;3.50;;;3.10;;
16270;SDS011;8243;49.048;8.396;2022-07-06T02:12:14;4.30;;;3.30;;
16270;SDS011;8243;49.048;8.396;2022-07-06T02:14:40;7.27;;;3.37;;
16270;SDS011;8243;49.048;8.396;2022-07-06T02:17:06;5.00;;;3.10;;
16270;SDS011;8243;49.048;8.396;2022-07-06T02:19:31;4.33;;;2.90;;
16270;SDS011;8243;49.048;8.396;2022-07-06T02:21:57;7.07;;;3.30;;
16270;SDS011;8243;49.048;8.396;2022-07-06T02:24:22;4.57;;;2.70;;
16270;SDS011;8243;49.048;8.396;2022-07-06T02:26:48;5.53;;;2.57;;
16270;SDS011;8243;49.048;8.396;2022-07-06T02:29:13;5.10;;;2.87;;
16270;SDS011;8243;49.048;8.396;2022-07-06T02:31:39;3.47;;;2.43;;
16270;SDS011;8243;49.048;8.396;2022-07-06T02:34:04;5.93;;;2.90;;
16270;SDS011;8243;49.048;8.396;2022-07-06T02:36:30;5.73;;;2.77;;
16270;SDS011;8243;49.048;8.396;2022-07-06T02:38:55;5.57;;;2.77;;
16270;SDS011;8243;49.048;8.396;2022-07-06T02:41:21;4.00;;;2.60;;
16270;SDS011;8243;49.048;8.396;2022-07-06T02:43:46;4.33;;;2.47;;
16270;SDS011;8243;49.048;8.396;2022-07-06T02:46:12;5.77;;;2.63;;
16270;SDS011;8243;49.048;8.396;2022-07-06T02:48:37;4.97;;;3.00;;
16270;SDS011;8243;49.048;8.396;2022-07-06T02:51:03;7.77;;;3.20;;
16270;SDS011;8243;49.048;8.396;2022-07-06T02:53:28;5.93;;;2.90;;
16270;SDS011;8243;49.048;8.396;2022-07-06T02:55:54;3.33;;;3.03;;
16270;SDS011;8243;49.048;8.396;2022-07-06T02:58:19;5.50;;;3.00;;
16270;SDS011;8243;49.048;8.396;2022-07-06T03:00:45;3.50;;;2.63;;
16270;SDS011;8243;49.048;8.396;2022-07-06T03:03:10;5.13;;;2.90;;
16270;SDS011;8243;49.048;8.396;2022-07-06T03:05:36;4.60;;;2.80;;
16270;SDS011;8243;49.048;8.396;2022-07-06T03:08:01;4.73;;;2.60;;
16270;SDS011;8243;49.048;8.396;2022-07-06T03:10:27;4.53;;;2.80;;
16270;SDS011;8243;49.048;8.396;2022-07-06T03:12:53;5.33;;;3.00;;
16270;SDS011;8243;49.048;8.396;2022-07-06T03:15:18;4.53;;;3.00;;
16270;SDS011;8243;49.048;8.396;2022-07-06T03:17:44;3.77;;;2.97;;
16270;SDS011;8243;49.048;8.396;2022-07-06T03:20:09;3.87;;;3.10;;
16270;SDS011;8243;49.048;8.396;2022-07-06T03:22:36;4.23;;;3.40;;
16270;SDS011;8243;49.048;8.396;2022-07-06T03:25:01;4.23;;;3.00;;
16270;SDS011;8243;49.048;8.396;2022-07-06T03:27:27;4.17;;;3.17;;
16270;SDS011;8243;49.048;8.396;2022-07-06T03:29:52;3.97;;;3.40;;
16270;SDS011;8243;49.048;8.396;2022-07-06T03:32:18;3.10;;;2.90;;
16270;SDS011;8243;49.048;8.396;2022-07-06T03:34:43;5.03;;;3.30;;
16270;SDS011;8243;49.048;8.396;2022-07-06T03:37:09;3.47;;;3.03;;
16270;SDS011;8243;49.048;8.396;2022-07-06T03:39:34;4.40;;;3.00;;
16270;SDS011;8243;49.048;8.396;2022-07-06T03:42:00;3.67;;;3.13;;
16270;SDS011;8243;49.048;8.396;2022-07-06T03:44:25;3.63;;;3.30;;
16270;SDS011;8243;49.048;8.396;2022-07-06T03:46:51;4.40;;;3.17;;
16270;SDS011;8243;49.048;8.396;2022-07-06T03:49:19;4.90;;;3.03;;
16270;SDS011;8243;49.048;8.396;2022-07-06T03:51:45;7.77;;;3.23;;
16270;SDS011;8243;49.048;8.396;2022-07-06T03:54:10;6.13;;;3.30;;
16270;SDS011;8243;49.048;8.396;2022-07-06T03:56:36;5.50;;;2.93;;
16270;SDS011;8243;49.048;8.396;2022-07-06T03:59:03;6.03;;;3.50;;
16270;SDS011;8243;49.048;8.396;2022-07-06T04:01:29;5.50;;;3.50;;
16270;SDS011;8243;49.048;8.396;2022-07-06T04:03:55;4.03;;;3.13;;
16270;SDS011;8243;49.048;8.396;2022-07-06T04:06:21;4.40;;;2.60;;
16270;SDS011;8243;49.048;8.396;2022-07-06T04:08:47;3.17;;;2.83;;
16270;SDS011;8243;49.048;8.396;2022-07-06T04:11:12;3.90;;;2.90;;
16270;SDS011;8243;49.048;8.396;2022-07-06T04:13:38;3.60;;;2.90;;
16270;SDS011;8243;49.048;8.396;2022-07-06T04:16:04;3.80;;;2.83;;
16270;SDS011;8243;49.048;8.396;2022-07-06T04:18:31;3.40;;;2.57;;
16270;SDS011;8243;49.048;8.396;2022-07-06T04:20:56;3.60;;;3.00;;
16270;SDS011;8243;49.048;8.396;2022-07-06T04:23:22;4.20;;;2.70;;
16270;SDS011;8243;49.048;8.396;2022-07-06T04:25:48;7.93;;;3.67;;
16270;SDS011;8243;49.048;8.396;2022-07-06T04:28:14;4.73;;;3.07;;
16270;SDS011;8243;49.048;8.396;2022-07-06T04:30:40;3.53;;;2.70;;
16270;SDS011;8243;49.048;8.396;2022-07-06T04:33:05;6.37;;;2.77;;
16270;SDS011;8243;49.048;8.396;2022-07-06T04:35:31;4.27;;;2.87;;
16270;SDS011;8243;49.048;8.396;2022-07-06T04:37:57;3.40;;;3.07;;
16270;SDS011;8243;49.048;8.396;2022-07-06T04:40:22;4.00;;;3.10;;
16270;SDS011;8243;49.048;8.396;2022-07-06T04:42:48;7.73;;;3.40;;
16270;SDS011;8243;49.048;8.396;2022-07-06T04:45:14;3.40;;;2.80;;
16270;SDS011;8243;49.048;8.396;2022-07-06T04:47:39;4.17;;;2.93;;
16270;SDS011;8243;49.048;8.396;2022-07-06T04:50:05;4.10;;;2.27;;
16270;SDS011;8243;49.048;8.396;2022-07-06T04:52:31;4.27;;;2.50;;
16270;SDS011;8243;49.048;8.396;2022-07-06T04:55:02;2.63;;;2.10;;
16270;SDS011;8243;49.048;8.396;2022-07-06T04:57:30;5.03;;;2.23;;
16270;SDS011;8243;49.048;8.396;2022-07-06T04:59:57;2.47;;;2.20;;
16270;SDS011;8243;49.048;8.396;2022-07-06T05:02:22;3.00;;;2.50;;
16270;SDS011;8243;49.048;8.396;2022-07-06T05:04:48;4.47;;;2.33;;
16270;SDS011;8243;49.048;8.396;2022-07-06T05:07:13;4.40;;;2.10;;
16270;SDS011;8243;49.048;8.396;2022-07-06T05:09:39;2.60;;;1.90;;
16270;SDS011;8243;49.048;8.396;2022-07-06T05:12:05;5.40;;;2.20;;
16270;SDS011;8243;49.048;8.396;2022-07-06T05:14:31;6.90;;;2.53;;
16270;SDS011;8243;49.048;8.396;2022-07-06T05:16:57;1.93;;;1.83;;
16270;SDS011;8243;49.048;8.396;2022-07-06T05:19:22;7.30;;;2.20;;
16270;SDS011;8243;49.048;8.396;2022-07-06T05:21:48;4.80;;;1.97;;
16270;SDS011;8243;49.048;8.396;2022-07-06T05:24:13;4.57;;;2.17;;
16270;SDS011;8243;49.048;8.396;2022-07-06T05:26:40;3.53;;;2.10;;
16270;SDS011;8243;49.048;8.396;2022-07-06T05:29:07;4.23;;;2.13;;
16270;SDS011;8243;49.048;8.396;2022-07-06T05:31:32;4.80;;;2.07;;
16270;SDS011;8243;49.048;8.396;2022-07-06T05:33:58;3.67;;;2.03;;
16270;SDS011;8243;49.048;8.396;2022-07-06T05:36:23;2.63;;;2.30;;
16270;SDS011;8243;49.048;8.396;2022-07-06T05:38:49;5.27;;;2.00;;
16270;SDS011;8243;49.048;8.396;2022-07-06T05:41:14;4.00;;;2.10;;
16270;SDS011;8243;49.048;8.396;2022-07-06T05:43:40;3.93;;;2.10;;
16270;SDS011;8243;49.048;8.396;2022-07-06T05:46:06;3.00;;;2.27;;
16270;SDS011;8243;49.048;8.396;2022-07-06T05:48:31;4.20;;;2.33;;
16270;SDS011;8243;49.048;8.396;2022-07-06T05:51:16;5.43;;;2.40;;
16270;SDS011;8243;49.048;8.396;2022-07-06T05:53:41;3.67;;;2.50;;
16270;SDS011;8243;49.048;8.396;2022-07-06T05:56:07;3.63;;;2.10;;
16270;SDS011;8243;49.048;8.396;2022-07-06T05:58:32;4.87;;;2.30;;
16270;SDS011;8243;49.048;8.396;2022-07-06T06:00:58;3.30;;;2.10;;
16270;SDS011;8243;49.048;8.396;2022-07-06T06:03:23;5.90;;;2.70;;
16270;SDS011;8243;49.048;8.396;2022-07-06T06:05:49;5.43;;;2.27;;
16270;SDS011;8243;49.048;8.396;2022-07-06T06:08:15;4.63;;;2.50;;
16270;SDS011;8243;49.048;8.396;2022-07-06T06:10:41;5.93;;;2.33;;
16270;SDS011;8243;49.048;8.396;2022-07-06T06:13:06;4.27;;;2.50;;
16270;SDS011;8243;49.048;8.396;2022-07-06T06:15:32;3.10;;;2.20;;
16270;SDS011;8243;49.048;8.396;2022-07-06T06:17:58;4.53;;;3.20;;
16270;SDS011;8243;49.048;8.396;2022-07-06T06:20:23;4.67;;;2.63;;
16270;SDS011;8243;49.048;8.396;2022-07-06T06:22:50;4.10;;;2.90;;
16270;SDS011;8243;49.048;8.396;2022-07-06T06:25:20;4.47;;;2.83;;
16270;SDS011;8243;49.048;8.396;2022-07-06T06:27:52;4.60;;;2.67;;
16270;SDS011;8243;49.048;8.396;2022-07-06T06:30:17;4.27;;;2.50;;
16270;SDS011;8243;49.048;8.396;2022-07-06T06:32:43;2.83;;;2.53;;
16270;SDS011;8243;49.048;8.396;2022-07-06T06:35:09;5.77;;;2.23;;
16270;SDS011;8243;49.048;8.396;2022-07-06T06:37:35;3.20;;;2.70;;
16270;SDS011;8243;49.048;8.396;2022-07-06T06:40:05;3.90;;;2.40;;
16270;SDS011;8243;49.048;8.396;2022-07-06T06:42:32;4.47;;;2.60;;
16270;SDS011;8243;49.048;8.396;2022-07-06T06:45:01;5.53;;;2.57;;
16270;SDS011;8243;49.048;8.396;2022-07-06T06:47:27;3.90;;;2.40;;
16270;SDS011;8243;49.048;8.396;2022-07-06T06:49:52;4.60;;;2.67;;
16270;SDS011;8243;49.048;8.396;2022-07-06T06:52:21;2.60;;;2.40;;
16270;SDS011;8243;49.048;8.396;2022-07-06T06:54:52;2.80;;;2.33;;
16270;SDS011;8243;49.048;8.396;2022-07-06T06:57:18;4.80;;;2.50;;
16270;SDS011;8243;49.048;8.396;2022-07-06T06:59:44;3.83;;;2.17;;
16270;SDS011;8243;49.048;8.396;2022-07-06T07:02:09;4.97;;;2.50;;
16270;SDS011;8243;49.048;8.396;2022-07-06T07:04:35;5.03;;;2.60;;
16270;SDS011;8243;49.048;8.396;2022-07-06T07:07:00;2.60;;;2.20;;
16270;SDS011;8243;49.048;8.396;2022-07-06T07:09:26;6.73;;;2.73;;
16270;SDS011;8243;49.048;8.396;2022-07-06T07:11:52;3.80;;;2.27;;
16270;SDS011;8243;49.048;8.396;2022-07-06T07:14:17;3.27;;;2.77;;
16270;SDS011;8243;49.048;8.396;2022-07-06T07:16:43;6.83;;;2.93;;
16270;SDS011;8243;49.048;8.396;2022-07-06T07:19:08;4.00;;;2.30;;
16270;SDS011;8243;49.048;8.396;2022-07-06T07:21:34;3.77;;;2.40;;
16270;SDS011;8243;49.048;8.396;2022-07-06T07:23:59;5.50;;;2.70;;
16270;SDS011;8243;49.048;8.396;2022-07-06T07:26:25;4.73;;;2.37;;
16270;SDS011;8243;49.048;8.396;2022-07-06T07:28:51;4.00;;;2.40;;
16270;SDS011;8243;49.048;8.396;2022-07-06T07:31:16;3.63;;;2.17;;
16270;SDS011;8243;49.048;8.396;2022-07-06T07:33:42;2.23;;;2.00;;
16270;SDS011;8243;49.048;8.396;2022-07-06T07:36:07;5.17;;;2.37;;
16270;SDS011;8243;49.048;8.396;2022-07-06T07:38:33;4.80;;;2.50;;
16270;SDS011;8243;49.048;8.396;2022-07-06T07:40:58;3.60;;;2.27;;
16270;SDS011;8243;49.048;8.396;2022-07-06T07:43:24;6.20;;;2.60;;
16270;SDS011;8243;49.048;8.396;2022-07-06T07:45:49;5.43;;;2.47;;
16270;SDS011;8243;49.048;8.396;2022-07-06T07:48:15;4.63;;;2.80;;
16270;SDS011;8243;49.048;8.396;2022-07-06T07:50:41;5.27;;;2.70;;
16270;SDS011;8243;49.048;8.396;2022-07-06T07:53:07;3.30;;;2.53;;
16270;SDS011;8243;49.048;8.396;2022-07-06T07:55:33;3.93;;;2.40;;
16270;SDS011;8243;49.048;8.396;2022-07-06T07:57:58;7.73;;;2.73;;
16270;SDS011;8243;49.048;8.396;2022-07-06T08:00:24;5.37;;;2.67;;
16270;SDS011;8243;49.048;8.396;2022-07-06T08:02:50;6.50;;;2.43;;
16270;SDS011;8243;49.048;8.396;2022-07-06T08:05:16;3.87;;;2.37;;
16270;SDS011;8243;49.048;8.396;2022-07-06T08:07:42;5.77;;;2.03;;
16270;SDS011;8243;49.048;8.396;2022-07-06T08:10:08;7.10;;;2.73;;
16270;SDS011;8243;49.048;8.396;2022-07-06T08:12:35;6.73;;;2.87;;
16270;SDS011;8243;49.048;8.396;2022-07-06T08:15:01;3.73;;;2.43;;
16270;SDS011;8243;49.048;8.396;2022-07-06T08:17:27;6.60;;;2.83;;
16270;SDS011;8243;49.048;8.396;2022-07-06T08:19:53;4.00;;;2.10;;
16270;SDS011;8243;49.048;8.396;2022-07-06T08:22:18;5.17;;;2.80;;
16270;SDS011;8243;49.048;8.396;2022-07-06T08:24:44;5.87;;;2.67;;
16270;SDS011;8243;49.048;8.396;2022-07-06T08:27:09;5.90;;;2.60;;
16270;SDS011;8243;49.048;8.396;2022-07-06T08:29:35;3.73;;;2.67;;
16270;SDS011;8243;49.048;8.396;2022-07-06T08:32:00;5.13;;;2.77;;
16270;SDS011;8243;49.048;8.396;2022-07-06T08:34:26;7.73;;;2.50;;
16270;SDS011;8243;49.048;8.396;2022-07-06T08:36:52;7.47;;;3.00;;
16270;SDS011;8243;49.048;8.396;2022-07-06T08:39:17;4.77;;;2.97;;
16270;SDS011;8243;49.048;8.396;2022-07-06T08:41:43;4.23;;;2.63;;
16270;SDS011;8243;49.048;8.396;2022-07-06T08:44:14;4.60;;;2.67;;
16270;SDS011;8243;49.048;8.396;2022-07-06T08:46:40;4.30;;;2.70;;
16270;SDS011;8243;49.048;8.396;2022-07-06T08:49:06;6.20;;;2.53;;
16270;SDS011;8243;49.048;8.396;2022-07-06T08:51:34;5.90;;;2.50;;
16270;SDS011;8243;49.048;8.396;2022-07-06T08:54:01;4.57;;;2.80;;
16270;SDS011;8243;49.048;8.396;2022-07-06T08:56:28;5.57;;;2.43;;
16270;SDS011;8243;49.048;8.396;2022-07-06T08:58:55;6.20;;;2.90;;
16270;SDS011;8243;49.048;8.396;2022-07-06T09:01:20;3.13;;;2.50;;
16270;SDS011;8243;49.048;8.396;2022-07-06T09:03:46;3.37;;;2.30;;
16270;SDS011;8243;49.048;8.396;2022-07-06T09:06:16;4.50;;;2.57;;
16270;SDS011;8243;49.048;8.396;2022-07-06T09:08:44;6.07;;;2.70;;
16270;SDS011;8243;49.048;8.396;2022-07-06T09:11:11;3.80;;;2.40;;
16270;SDS011;8243;49.048;8.396;2022-07-06T09:13:37;5.10;;;2.20;;
16270;SDS011;8243;49.048;8.396;2022-07-06T09:16:12;5.67;;;2.50;;
16270;SDS011;8243;49.048;8.396;2022-07-06T09:18:39;7.10;;;2.47;;
16270;SDS011;8243;49.048;8.396;2022-07-06T09:21:08;6.17;;;2.77;;
16270;SDS011;8243;49.048;8.396;2022-07-06T09:23:34;4.80;;;2.40;;
16270;SDS011;8243;49.048;8.396;2022-07-06T09:26:02;3.90;;;2.37;;
16270;SDS011;8243;49.048;8.396;2022-07-06T09:28:41;6.93;;;2.57;;
16270;SDS011;8243;49.048;8.396;2022-07-06T09:31:10;6.53;;;2.60;;
16270;SDS011;8243;49.048;8.396;2022-07-06T09:33:36;4.53;;;2.40;;
16270;SDS011;8243;49.048;8.396;2022-07-06T09:36:03;4.53;;;2.60;;
16270;SDS011;8243;49.048;8.396;2022-07-06T09:38:30;2.93;;;2.07;;
16270;SDS011;8243;49.048;8.396;2022-07-06T09:40:56;5.03;;;2.60;;
16270;SDS011;8243;49.048;8.396;2022-07-06T09:43:23;5.97;;;2.80;;
16270;SDS011;8243;49.048;8.396;2022-07-06T09:45:50;3.90;;;1.97;;
16270;SDS011;8243;49.048;8.396;2022-07-06T09:48:21;2.47;;;1.87;;
16270;SDS011;8243;49.048;8.396;2022-07-06T09:50:55;6.07;;;2.67;;
16270;SDS011;8243;49.048;8.396;2022-07-06T09:53:28;4.77;;;2.43;;
16270;SDS011;8243;49.048;8.396;2022-07-06T09:55:54;6.43;;;2.60;;
16270;SDS011;8243;49.048;8.396;2022-07-06T09:58:23;5.10;;;2.50;;
16270;SDS011;8243;49.048;8.396;2022-07-06T10:00:49;3.80;;;2.60;;
16270;SDS011;8243;49.048;8.396;2022-07-06T10:03:16;3.47;;;2.50;;
16270;SDS011;8243;49.048;8.396;2022-07-06T10:05:43;4.33;;;2.40;;
16270;SDS011;8243;49.048;8.396;2022-07-06T10:08:14;5.23;;;2.30;;
16270;SDS011;8243;49.048;8.396;2022-07-06T10:10:41;4.43;;;2.13;;
16270;SDS011;8243;49.048;8.396;2022-07-06T10:13:08;4.67;;;2.90;;
16270;SDS011;8243;49.048;8.396;2022-07-06T10:15:38;3.47;;;2.00;;
16270;SDS011;8243;49.048;8.396;2022-07-06T10:18:06;7.33;;;3.27;;
16270;SDS011;8243;49.048;8.396;2022-07-06T10:20:34;5.87;;;2.40;;
16270;SDS011;8243;49.048;8.396;2022-07-06T10:23:03;4.63;;;2.40;;
16270;SDS011;8243;49.048;8.396;2022-07-06T10:25:29;4.67;;;2.60;;
16270;SDS011;8243;49.048;8.396;2022-07-06T10:27:57;5.00;;;2.40;;
16270;SDS011;8243;49.048;8.396;2022-07-06T10:30:24;4.87;;;2.60;;
16270;SDS011;8243;49.048;8.396;2022-07-06T10:32:50;3.67;;;2.30;;
16270;SDS011;8243;49.048;8.396;2022-07-06T10:35:19;5.03;;;2.63;;
16270;SDS011;8243;49.048;8.396;2022-07-06T10:37:45;6.67;;;2.40;;
16270;SDS011;8243;49.048;8.396;2022-07-06T10:40:31;4.67;;;2.33;;
16270;SDS011;8243;49.048;8.396;2022-07-06T10:43:20;10.63;;;2.37;;
16270;SDS011;8243;49.048;8.396;2022-07-06T10:50:40;2.93;;;2.17;;
16270;SDS011;8243;49.048;8.396;2022-07-06T10:53:11;3.70;;;2.23;;
16270;SDS011;8243;49.048;8.396;2022-07-06T10:55:41;2.80;;;2.20;;
16270;SDS011;8243;49.048;8.396;2022-07-06T10:58:09;5.50;;;2.10;;
16270;SDS011;8243;49.048;8.396;2022-07-06T11:00:51;4.90;;;2.07;;
16270;SDS011;8243;49.048;8.396;2022-07-06T11:06:36;3.87;;;2.33;;
16270;SDS011;8243;49.048;8.396;2022-07-06T11:14:03;5.60;;;2.47;;
16270;SDS011;8243;49.048;8.396;2022-07-06T11:16:31;6.47;;;2.30;;
16270;SDS011;8243;49.048;8.396;2022-07-06T11:19:18;3.90;;;2.13;;
16270;SDS011;8243;49.048;8.396;2022-07-06T11:21:58;4.93;;;2.30;;
16270;SDS011;8243;49.048;8.396;2022-07-06T11:24:35;6.07;;;2.27;;
16270;SDS011;8243;49.048;8.396;2022-07-06T11:27:04;5.13;;;2.43;;
16270;SDS011;8243;49.048;8.396;2022-07-06T11:29:31;4.57;;;2.50;;
16270;SDS011;8243;49.048;8.396;2022-07-06T11:31:59;4.57;;;2.00;;
16270;SDS011;8243;49.048;8.396;2022-07-06T11:34:29;2.93;;;1.90;;
16270;SDS011;8243;49.048;8.396;2022-07-06T11:37:01;4.80;;;2.20;;
16270;SDS011;8243;49.048;8.396;2022-07-06T11:39:29;5.43;;;2.17;;
16270;SDS011;8243;49.048;8.396;2022-07-06T11:41:56;2.10;;;1.87;;
16270;SDS011;8243;49.048;8.396;2022-07-06T11:44:23;2.50;;;1.90;;
16270;SDS011;8243;49.048;8.396;2022-07-06T11:46:49;2.47;;;2.13;;
16270;SDS011;8243;49.048;8.396;2022-07-06T11:49:15;4.83;;;1.97;;
16270;SDS011;8243;49.048;8.396;2022-07-06T11:51:41;2.70;;;2.07;;
16270;SDS011;8243;49.048;8.396;2022-07-06T11:54:11;4.07;;;2.37;;
16270;SDS011;8243;49.048;8.396;2022-07-06T11:56:37;4.33;;;1.93;;
16270;SDS011;8243;49.048;8.396;2022-07-06T11:59:03;4.20;;;1.63;;
16270;SDS011;8243;49.048;8.396;2022-07-06T12:01:30;4.10;;;2.00;;
16270;SDS011;8243;49.048;8.396;2022-07-06T12:03:59;4.47;;;1.90;;
16270;SDS011;8243;49.048;8.396;2022-07-06T12:06:25;3.23;;;2.00;;
16270;SDS011;8243;49.048;8.396;2022-07-06T12:08:52;3.47;;;1.90;;
16270;SDS011;8243;49.048;8.396;2022-07-06T12:11:26;6.13;;;1.70;;
16270;SDS011;8243;49.048;8.396;2022-07-06T12:13:54;2.03;;;1.83;;
16270;SDS011;8243;49.048;8.396;2022-07-06T12:16:21;2.57;;;1.90;;
16270;SDS011;8243;49.048;8.396;2022-07-06T12:18:53;2.90;;;1.90;;
16270;SDS011;8243;49.048;8.396;2022-07-06T12:21:19;5.50;;;2.20;;
16270;SDS011;8243;49.048;8.396;2022-07-06T12:23:47;3.47;;;1.80;;
16270;SDS011;8243;49.048;8.396;2022-07-06T12:26:14;5.30;;;2.00;;
16270;SDS011;8243;49.048;8.396;2022-07-06T12:28:42;2.17;;;1.87;;
16270;SDS011;8243;49.048;8.396;2022-07-06T12:31:09;2.77;;;1.70;;
16270;SDS011;8243;49.048;8.396;2022-07-06T12:33:35;4.13;;;1.90;;
16270;SDS011;8243;49.048;8.396;2022-07-06T12:36:11;5.43;;;2.07;;
16270;SDS011;8243;49.048;8.396;2022-07-06T12:38:43;3.57;;;2.00;;
16270;SDS011;8243;49.048;8.396;2022-07-06T12:41:09;2.63;;;1.80;;
16270;SDS011;8243;49.048;8.396;2022-07-06T12:43:36;2.90;;;1.70;;
16270;SDS011;8243;49.048;8.396;2022-07-06T12:48:55;2.57;;;1.53;;
16270;SDS011;8243;49.048;8.396;2022-07-06T12:51:22;3.80;;;1.57;;
16270;SDS011;8243;49.048;8.396;2022-07-06T12:53:48;4.47;;;1.70;;
16270;SDS011;8243;49.048;8.396;2022-07-06T12:56:15;1.70;;;1.60;;
16270;SDS011;8243;49.048;8.396;2022-07-06T12:59:20;3.57;;;1.77;;
16270;SDS011;8243;49.048;8.396;2022-07-06T13:01:32;2.03;;;1.60;;
16270;SDS011;8243;49.048;8.396;2022-07-06T13:03:58;2.70;;;1.60;;
16270;SDS011;8243;49.048;8.396;2022-07-06T13:06:30;3.03;;;1.53;;
16270;SDS011;8243;49.048;8.396;2022-07-06T13:08:57;2.33;;;1.40;;
16270;SDS011;8243;49.048;8.396;2022-07-06T13:11:23;3.37;;;1.67;;
16270;SDS011;8243;49.048;8.396;2022-07-06T13:13:48;3.57;;;1.80;;
16270;SDS011;8243;49.048;8.396;2022-07-06T13:16:14;2.37;;;1.50;;
16270;SDS011;8243;49.048;8.396;2022-07-06T13:18:40;2.20;;;1.50;;
16270;SDS011;8243;49.048;8.396;2022-07-06T13:21:05;3.77;;;1.50;;
16270;SDS011;8243;49.048;8.396;2022-07-06T13:23:31;2.40;;;1.50;;
16270;SDS011;8243;49.048;8.396;2022-07-06T13:25:56;1.97;;;1.40;;
16270;SDS011;8243;49.048;8.396;2022-07-06T13:28:22;2.23;;;1.50;;
16270;SDS011;8243;49.048;8.396;2022-07-06T13:30:47;3.63;;;1.57;;
16270;SDS011;8243;49.048;8.396;2022-07-06T13:33:13;2.97;;;1.70;;
16270;SDS011;8243;49.048;8.396;2022-07-06T13:35:38;2.63;;;1.60;;
16270;SDS011;8243;49.048;8.396;2022-07-06T13:38:04;3.53;;;1.57;;
16270;SDS011;8243;49.048;8.396;2022-07-06T13:40:29;1.40;;;1.30;;
16270;SDS011;8243;49.048;8.396;2022-07-06T13:42:55;2.70;;;1.60;;
16270;SDS011;8243;49.048;8.396;2022-07-06T13:45:20;2.43;;;1.57;;
16270;SDS011;8243;49.048;8.396;2022-07-06T13:47:46;2.50;;;1.30;;
16270;SDS011;8243;49.048;8.396;2022-07-06T13:50:11;2.43;;;1.40;;
16270;SDS011;8243;49.048;8.396;2022-07-06T13:52:37;2.03;;;1.40;;
16270;SDS011;8243;49.048;8.396;2022-07-06T13:55:03;3.30;;;1.50;;
16270;SDS011;8243;49.048;8.396;2022-07-06T13:57:30;1.70;;;1.57;;
16270;SDS011;8243;49.048;8.396;2022-07-06T13:59:56;4.33;;;1.50;;
16270;SDS011;8243;49.048;8.396;2022-07-06T14:02:22;3.80;;;1.73;;
16270;SDS011;8243;49.048;8.396;2022-07-06T14:04:47;3.13;;;1.50;;
16270;SDS011;8243;49.048;8.396;2022-07-06T14:07:13;2.30;;;1.47;;
16270;SDS011;8243;49.048;8.396;2022-07-06T14:09:39;4.03;;;1.63;;
16270;SDS011;8243;49.048;8.396;2022-07-06T14:12:04;2.60;;;1.40;;
16270;SDS011;8243;49.048;8.396;2022-07-06T14:14:30;3.40;;;1.40;;
16270;SDS011;8243;49.048;8.396;2022-07-06T14:16:56;2.60;;;1.63;;
16270;SDS011;8243;49.048;8.396;2022-07-06T14:19:21;1.93;;;1.40;;
16270;SDS011;8243;49.048;8.396;2022-07-06T14:21:47;2.70;;;1.33;;
16270;SDS011;8243;49.048;8.396;2022-07-06T14:24:13;1.50;;;1.40;;
16270;SDS011;8243;49.048;8.396;2022-07-06T14:26:39;2.00;;;1.50;;
16270;SDS011;8243;49.048;8.396;2022-07-06T14:29:05;1.83;;;1.70;;
16270;SDS011;8243;49.048;8.396;2022-07-06T14:31:31;3.20;;;1.43;;
16270;SDS011;8243;49.048;8.396;2022-07-06T14:33:56;1.77;;;1.10;;
16270;SDS011;8243;49.048;8.396;2022-07-06T14:36:22;2.27;;;1.20;;
16270;SDS011;8243;49.048;8.396;2022-07-06T14:38:47;2.60;;;1.30;;
16270;SDS011;8243;49.048;8.396;2022-07-06T14:41:13;1.90;;;1.20;;
16270;SDS011;8243;49.048;8.396;2022-07-06T14:43:39;2.77;;;1.60;;
16270;SDS011;8243;49.048;8.396;2022-07-06T14:46:05;2.87;;;1.53;;
16270;SDS011;8243;49.048;8.396;2022-07-06T14:48:30;1.47;;;1.30;;
16270;SDS011;8243;49.048;8.396;2022-07-06T14:50:56;4.73;;;1.43;;
16270;SDS011;8243;49.048;8.396;2022-07-06T14:53:22;4.53;;;1.40;;
16270;SDS011;8243;49.048;8.396;2022-07-06T14:55:48;1.50;;;1.37;;
16270;SDS011;8243;49.048;8.396;2022-07-06T14:58:14;3.80;;;1.50;;
16270;SDS011;8243;49.048;8.396;2022-07-06T15:00:43;3.60;;;1.47;;
16270;SDS011;8243;49.048;8.396;2022-07-06T15:03:09;2.20;;;1.50;;
16270;SDS011;8243;49.048;8.396;2022-07-06T15:05:35;1.33;;;1.30;;
16270;SDS011;8243;49.048;8.396;2022-07-06T15:08:01;3.33;;;1.87;;
16270;SDS011;8243;49.048;8.396;2022-07-06T15:10:27;3.70;;;1.60;;
16270;SDS011;8243;49.048;8.396;2022-07-06T15:12:53;2.43;;;1.47;;